Time;durP1;ratioP1;P1;durP2;ratioP2;P2;SDS_P1;SDS_P2;PMS_P1;PMS_P2;Temp;Humidity;BMP_temperature;BMP_pressure;BME280_temperature;BME280_humidity;BME280_pressure;Samples;Min_cycle;Max_cycle;Signal;HPM_P1;HPM_P2
2022/11/02 00:00:34;;;;;;;5.40;1.40;;;;;;;13.11;65.54;99895.06;5073378;28;20036;-84
2022/11/02 00:03:00;;;;;;;11.82;2.25;;;;;;;13.00;65.65;99880.59;5073475;28;20032;-89
2022/11/02 00:05:26;;;;;;;6.00;1.63;;;;;;;12.98;65.79;99881.97;5072840;28;20197;-90
2022/11/02 00:07:52;;;;;;;10.68;2.28;;;;;;;12.91;66.05;99866.69;5073690;28;20033;-93
2022/11/02 00:10:18;;;;;;;12.75;2.10;;;;;;;12.95;66.21;99873.22;5073740;28;20115;-93
2022/11/02 00:12:44;;;;;;;7.55;2.08;;;;;;;12.94;66.03;99865.28;5074228;28;20044;-94
2022/11/02 00:15:10;;;;;;;12.18;2.13;;;;;;;12.92;66.40;99873.78;5073618;28;20024;-94
2022/11/02 00:17:36;;;;;;;8.02;1.60;;;;;;;12.99;66.08;99870.75;5072715;28;20031;-92
2022/11/02 00:20:04;;;;;;;13.57;1.85;;;;;;;12.83;66.18;99856.28;5073753;28;20387;-91
2022/11/02 00:22:30;;;;;;;5.40;1.52;;;;;;;12.96;66.36;99865.81;5072888;28;20093;-91
2022/11/02 00:24:56;;;;;;;8.05;1.85;;;;;;;12.88;66.57;99860.91;5073407;28;20471;-84
2022/11/02 00:27:22;;;;;;;10.55;2.88;;;;;;;13.04;66.12;99848.84;5072977;28;20337;-84
2022/11/02 00:29:47;;;;;;;10.57;1.85;;;;;;;12.93;66.23;99856.28;5073412;28;20108;-92
2022/11/02 00:32:13;;;;;;;12.18;2.92;;;;;;;12.88;66.42;99850.81;5072909;28;20112;-91
2022/11/02 00:34:38;;;;;;;22.50;2.72;;;;;;;12.91;66.35;99850.25;5073551;28;20062;-93
2022/11/02 00:37:03;;;;;;;7.32;1.90;;;;;;;12.93;66.95;99853.53;5073143;28;20056;-93
2022/11/02 00:39:29;;;;;;;6.15;1.80;;;;;;;13.06;67.93;99859.50;5073274;28;20212;-93
2022/11/02 00:41:54;;;;;;;8.40;2.22;;;;;;;13.01;68.66;99860.34;5073805;28;20491;-92
2022/11/02 00:44:19;;;;;;;6.70;1.73;;;;;;;12.96;69.38;99854.88;5072669;28;20119;-85
2022/11/02 00:46:44;;;;;;;7.60;2.43;;;;;;;12.67;71.16;99867.25;5072951;28;20276;-85
2022/11/02 00:49:10;;;;;;;5.57;1.83;;;;;;;13.01;70.95;99870.47;5073055;28;20353;-96
2022/11/02 00:51:35;;;;;;;10.57;2.85;;;;;;;12.91;71.12;99863.94;5073892;28;20950;-96
2022/11/02 00:54:00;;;;;;;8.53;1.90;;;;;;;12.94;71.00;99859.81;5076173;28;20076;-88
2022/11/02 00:56:25;;;;;;;14.90;2.40;;;;;;;12.85;71.66;99862.31;5073072;28;20265;-88
2022/11/02 00:58:51;;;;;;;11.73;1.60;;;;;;;12.94;71.13;99866.09;5073331;28;20277;-96
2022/11/02 01:01:16;;;;;;;13.15;3.03;;;;;;;12.92;71.07;99845.59;5071952;28;20608;-95
2022/11/02 01:03:41;;;;;;;8.95;1.85;;;;;;;12.88;71.23;99855.44;5073201;28;20036;-87
2022/11/02 01:06:12;;;;;;;11.93;2.27;;;;;;;12.81;71.29;99853.03;5071627;28;20032;-87
2022/11/02 01:08:37;;;;;;;13.32;1.85;;;;;;;12.80;70.85;99848.63;5072838;28;20261;-88
2022/11/02 01:11:11;;;;;;;14.18;3.78;;;;;;;12.83;71.25;99857.09;5074178;28;20560;-88
2022/11/02 01:13:36;;;;;;;3.88;1.48;;;;;;;12.81;70.74;99855.75;5086543;28;20479;-89
2022/11/02 01:16:03;;;;;;;9.77;1.85;;;;;;;12.80;70.67;99865.03;5093226;28;20039;-89
2022/11/02 01:18:28;;;;;;;13.15;2.95;;;;;;;12.82;70.71;99858.22;5085770;28;20079;-85
2022/11/02 01:20:58;;;;;;;4.57;1.63;;;;;;;12.78;70.49;99862.59;5073101;28;20534;-85
2022/11/02 01:23:24;;;;;;;12.07;1.85;;;;;;;12.78;70.96;99857.13;5059253;28;20508;-86
2022/11/02 01:25:49;;;;;;;12.38;2.78;;;;;;;12.71;70.66;99851.94;5052724;28;20025;-85
2022/11/02 01:28:14;;;;;;;14.52;2.67;;;;;;;12.81;70.47;99855.75;5052923;28;20029;-89
2022/11/02 01:30:40;;;;;;;6.63;1.97;;;;;;;12.89;69.70;99854.38;5052959;28;20043;-90
2022/11/02 01:33:05;;;;;;;15.82;2.13;;;;;;;12.94;69.48;99863.38;5071252;28;20268;-92
2022/11/02 01:35:31;;;;;;;8.32;1.90;;;;;;;13.05;69.35;99849.66;5092715;28;20077;-93
2022/11/02 01:37:56;;;;;;;14.68;3.15;;;;;;;13.01;69.66;99848.56;5092818;28;20495;-93
2022/11/02 01:40:21;;;;;;;12.73;3.45;;;;;;;12.93;69.70;99863.66;5092629;28;20028;-92
2022/11/02 01:42:47;;;;;;;3.88;1.42;;;;;;;12.83;69.86;99859.03;5091869;28;20054;-92
2022/11/02 01:45:13;;;;;;;8.95;1.80;;;;;;;12.90;69.27;99856.00;5092468;28;20066;-93
2022/11/02 01:47:43;;;;;;;5.40;1.85;;;;;;;12.92;69.06;99851.06;5092169;28;20089;-92
2022/11/02 01:50:13;;;;;;;6.30;2.10;;;;;;;12.89;69.38;99862.56;5072316;28;20032;-93
2022/11/02 01:52:40;;;;;;;6.65;1.77;;;;;;;12.82;69.55;99858.22;5071711;28;20047;-93
2022/11/02 01:55:05;;;;;;;7.93;2.33;;;;;;;12.83;69.20;99861.78;5072020;28;20038;-87
2022/11/02 01:57:34;;;;;;;8.70;2.75;;;;;;;12.84;69.23;99858.75;5071642;28;20480;-87
2022/11/02 02:00:03;;;;;;;4.95;1.25;;;;;;;12.93;69.39;99856.28;5072246;28;20487;-89
2022/11/02 02:02:29;;;;;;;8.00;1.88;;;;;;;12.90;69.20;99864.19;5076707;28;20024;-89
2022/11/02 02:05:02;;;;;;;10.32;2.45;;;;;;;12.92;69.17;99862.81;5092296;28;20547;-89
2022/11/02 02:07:30;;;;;;;10.73;1.83;;;;;;;12.97;68.88;99848.31;5092100;28;20032;-85
2022/11/02 02:09:55;;;;;;;12.13;3.72;;;;;;;13.03;68.60;99865.53;5091859;28;20028;-85
2022/11/02 02:12:22;;;;;;;9.10;1.70;;;;;;;13.06;68.96;99856.75;5087554;28;20094;-85
2022/11/02 02:14:47;;;;;;;10.20;1.58;;;;;;;13.04;68.75;99861.69;5071881;28;20029;-85
2022/11/02 02:17:27;;;;;;;10.70;1.60;;;;;;;13.08;68.18;99855.38;5071674;28;20029;-87
2022/11/02 02:20:10;;;;;;;11.20;2.38;;;;;;;12.90;69.20;99864.19;5071385;28;20067;-87
2022/11/02 02:23:03;;;;;;;15.45;2.13;;;;;;;13.00;68.71;99863.34;5056372;28;20032;-87
2022/11/02 02:26:22;;;;;;;8.43;2.60;;;;;;;13.10;68.22;99863.31;5071641;28;20077;-90
2022/11/02 02:28:53;;;;;;;23.83;5.00;;;;;;;13.19;67.97;99850.69;5029034;28;20443;-89
2022/11/02 02:32:12;;;;;;;5.20;1.73;;;;;;;13.05;68.12;99855.97;5043991;28;20033;-89
2022/11/02 02:34:48;;;;;;;5.32;1.60;;;;;;;13.06;68.29;99852.09;5003588;28;20046;-89
2022/11/02 02:37:23;;;;;;;7.05;1.90;;;;;;;13.00;68.23;99858.69;5051052;28;20045;-94
2022/11/02 02:40:21;;;;;;;5.60;1.60;;;;;;;13.10;68.28;99863.31;5051424;28;20488;-94
2022/11/02 02:42:53;;;;;;;9.90;1.45;;;;;;;13.03;68.27;99846.38;5057591;28;20031;-94
2022/11/02 02:45:30;;;;;;;6.18;1.90;;;;;;;13.06;68.11;99851.28;5070074;28;20037;-92
2022/11/02 02:48:10;;;;;;;7.88;1.95;;;;;;;12.99;68.78;99857.06;5070163;28;20390;-93
2022/11/02 02:50:50;;;;;;;5.10;1.60;;;;;;;12.90;68.85;99845.88;5070034;28;20032;-89
2022/11/02 02:53:19;;;;;;;7.15;2.00;;;;;;;13.00;68.55;99860.59;5081269;28;20076;-90
2022/11/02 02:55:47;;;;;;;12.48;1.88;;;;;;;13.04;68.57;99858.94;5091292;28;20085;-89
2022/11/02 02:58:18;;;;;;;19.33;2.83;;;;;;;13.06;68.52;99856.75;5091431;28;20031;-89
2022/11/02 03:00:44;;;;;;;11.15;1.60;;;;;;;13.05;68.35;99858.69;5091395;28;20107;-89
2022/11/02 03:03:17;;;;;;;8.68;2.13;;;;;;;13.12;68.34;99871.25;5081424;28;20086;-89
2022/11/02 03:05:53;;;;;;;15.13;2.40;;;;;;;13.02;68.54;99856.50;5071395;28;20511;-89
2022/11/02 03:08:20;;;;;;;9.13;2.20;;;;;;;12.99;68.88;99856.25;5070921;28;20506;-89
2022/11/02 03:10:52;;;;;;;14.70;2.15;;;;;;;12.96;68.53;99847.50;5070777;28;20408;-90
2022/11/02 03:13:48;;;;;;;13.07;2.33;;;;;;;12.89;68.95;99854.38;5057472;28;20128;-87
2022/11/02 03:16:41;;;;;;;10.60;2.20;;;;;;;12.97;68.69;99840.13;5050164;28;20116;-87
2022/11/02 03:19:21;;;;;;;9.43;1.92;;;;;;;12.93;68.39;99850.81;5062860;28;20036;-89
2022/11/02 03:21:54;;;;;;;10.35;2.28;;;;;;;12.92;68.70;99862.81;5070561;28;20058;-89
2022/11/02 03:24:27;;;;;;;7.47;2.83;;;;;;;12.88;69.18;99871.84;5070436;28;20476;-94
2022/11/02 03:27:06;;;;;;;5.60;1.30;;;;;;;12.90;68.97;99867.75;5071529;28;20036;-94
2022/11/02 03:29:51;;;;;;;8.32;1.63;;;;;;;12.90;68.83;99867.75;5071252;28;20257;-87
2022/11/02 03:32:25;;;;;;;10.98;2.00;;;;;;;12.89;69.12;99873.50;5071828;28;20032;-87
2022/11/02 03:34:56;;;;;;;10.38;2.80;;;;;;;12.81;69.36;99872.97;5090872;28;20028;-87
2022/11/02 03:37:36;;;;;;;11.65;1.20;;;;;;;12.94;68.40;99877.06;5090458;28;20032;-88
2022/11/02 03:40:10;;;;;;;3.72;1.65;;;;;;;12.90;68.29;99886.91;5091039;28;20064;-87
2022/11/02 03:42:38;;;;;;;14.48;2.58;;;;;;;12.82;68.95;99884.75;5090669;28;20027;-86
2022/11/02 03:45:14;;;;;;;4.22;1.50;;;;;;;12.86;68.63;99896.78;5090783;28;20036;-92
2022/11/02 03:47:45;;;;;;;11.77;2.28;;;;;;;12.74;68.75;99897.06;5089977;28;20086;-92
2022/11/02 03:50:12;;;;;;;3.85;1.42;;;;;;;12.84;68.62;99896.22;5071147;28;20111;-92
2022/11/02 03:52:42;;;;;;;6.90;1.83;;;;;;;12.92;68.16;99895.66;5070434;28;20024;-91
2022/11/02 03:55:07;;;;;;;5.38;2.67;;;;;;;12.91;68.01;99902.25;5070999;28;20058;-89
2022/11/02 03:57:38;;;;;;;8.75;3.25;;;;;;;12.85;68.18;99903.34;5070763;28;20024;-90
2022/11/02 04:05:13;;;;;;;6.55;1.60;;;;;;;12.78;68.64;99913.75;5235530;22;20050;-82
2022/11/02 04:10:25;;;;;;;7.05;2.03;;;;;;;12.81;68.91;99918.69;5029068;28;20040;-85
2022/11/02 04:15:34;;;;;;;8.75;1.52;;;;;;;12.80;68.58;99925.22;5050132;28;20043;-83
2022/11/02 04:21:00;;;;;;;5.20;1.70;;;;;;;12.81;68.66;99946.84;4968940;28;20803;-84
2022/11/02 04:26:09;;;;;;;7.13;1.45;;;;;;;12.80;69.00;99934.25;5030834;28;20305;-84
2022/11/02 04:28:34;;;;;;;6.43;2.20;;;;;;;12.74;69.04;99938.09;5030694;28;20041;-84
2022/11/02 04:31:00;;;;;;;10.00;1.47;;;;;;;12.66;69.28;99944.94;5030429;28;20265;-84
2022/11/02 04:33:32;;;;;;;10.18;1.35;;;;;;;12.64;68.58;99943.56;5041554;28;20697;-85
2022/11/02 04:36:06;;;;;;;6.50;1.55;;;;;;;12.65;68.56;99948.75;5051106;28;20091;-84
2022/11/02 04:38:40;;;;;;;;;;;;;;;12.63;68.55;99958.38;5054181;28;20460;-84
2022/11/02 04:43:51;;;;;;;15.45;3.85;;;;;;;12.51;68.31;99953.16;5037650;28;20079;-84
2022/11/02 04:46:17;;;;;;;12.63;1.85;;;;;;;12.61;68.00;99953.13;5033543;28;20461;-85
2022/11/02 04:48:42;;;;;;;9.32;1.58;;;;;;;12.79;67.63;99956.44;5033372;28;20124;-84
2022/11/02 04:51:07;;;;;;;6.03;1.27;;;;;;;12.63;67.92;99964.63;5033235;28;20386;-82
2022/11/02 04:53:34;;;;;;;6.20;1.80;;;;;;;12.61;67.92;99961.34;5045761;28;20278;-84
2022/11/02 04:55:59;;;;;;;6.55;1.20;;;;;;;12.65;67.71;99970.66;5053352;28;20254;-82
2022/11/02 04:58:24;;;;;;;7.57;2.13;;;;;;;12.62;67.72;99954.78;5052895;28;20036;-84
2022/11/02 05:00:50;;;;;;;8.87;2.47;;;;;;;12.70;67.71;99969.84;5052826;28;20473;-85
2022/11/02 05:03:15;;;;;;;6.63;1.40;;;;;;;12.69;67.94;99971.75;5042070;28;20262;-83
2022/11/02 05:05:40;;;;;;;7.23;1.53;;;;;;;12.64;67.48;99969.03;5033211;28;20285;-84
2022/11/02 05:08:05;;;;;;;13.90;3.37;;;;;;;12.70;67.70;99981.59;5032843;28;20261;-84
2022/11/02 05:10:31;;;;;;;9.53;1.90;;;;;;;12.66;67.63;99985.97;5032737;28;20686;-84
2022/11/02 05:12:57;;;;;;;8.33;1.43;;;;;;;12.58;68.00;99984.63;5041667;28;20285;-84
2022/11/02 05:15:23;;;;;;;7.65;2.30;;;;;;;12.59;67.79;99985.44;5052504;28;20266;-85
2022/11/02 05:17:48;;;;;;;8.15;1.73;;;;;;;12.64;67.62;99988.16;5050504;28;20087;-84
2022/11/02 05:20:13;;;;;;;7.07;1.53;;;;;;;12.64;67.72;99988.16;5032893;28;20179;-84
2022/11/02 05:22:42;;;;;;;7.82;1.40;;;;;;;12.57;67.97;99987.63;5031502;28;20334;-84
2022/11/02 05:25:08;;;;;;;4.47;1.05;;;;;;;12.62;67.70;99987.63;5032738;28;20064;-84
2022/11/02 05:27:33;;;;;;;5.90;1.73;;;;;;;12.58;68.03;99984.63;5032618;28;20025;-83
2022/11/02 05:29:59;;;;;;;3.80;1.20;;;;;;;12.63;67.81;99980.25;5032718;28;20042;-82
2022/11/02 05:32:25;;;;;;;8.63;3.00;;;;;;;12.68;67.42;99994.72;5032370;28;20290;-82
2022/11/02 05:34:51;;;;;;;11.55;2.67;;;;;;;12.65;67.60;100000.72;5032517;28;20301;-84
2022/11/02 05:37:16;;;;;;;3.63;1.00;;;;;;;12.52;68.09;99999.38;5032227;28;20069;-84
2022/11/02 05:39:41;;;;;;;19.40;3.78;;;;;;;12.51;68.38;100005.13;5032560;28;20289;-86
2022/11/02 05:42:07;;;;;;;11.52;2.35;;;;;;;12.47;68.28;100011.13;5033640;28;20022;-82
2022/11/02 05:44:32;;;;;;;11.85;1.90;;;;;;;12.55;68.18;100006.22;5052709;28;20040;-85
2022/11/02 05:46:57;;;;;;;6.23;1.70;;;;;;;12.59;68.29;100012.78;5052238;28;20033;-84
2022/11/02 05:49:22;;;;;;;7.32;1.90;;;;;;;12.49;68.37;100008.09;5037759;28;20598;-84
2022/11/02 05:51:48;;;;;;;11.90;2.40;;;;;;;12.47;68.58;100011.13;5031940;28;20073;-84
2022/11/02 05:54:13;;;;;;;6.15;1.33;;;;;;;12.52;68.32;100017.69;5050025;28;20262;-85
2022/11/02 05:56:39;;;;;;;6.07;2.65;;;;;;;12.52;68.11;100024.00;5052254;28;20526;-84
2022/11/02 05:59:04;;;;;;;7.88;2.13;;;;;;;12.60;68.05;100028.09;5051849;28;20035;-84
2022/11/02 06:01:29;;;;;;;9.25;2.85;;;;;;;12.57;67.41;100025.91;5052191;28;20118;-84
2022/11/02 06:03:55;;;;;;;8.38;1.80;;;;;;;12.45;67.99;100028.88;5035527;28;20056;-84
2022/11/02 06:06:20;;;;;;;6.68;1.75;;;;;;;12.46;67.48;100027.81;5032157;28;20030;-84
2022/11/02 06:08:45;;;;;;;17.70;2.33;;;;;;;12.35;68.30;100029.69;5032092;28;20037;-84
2022/11/02 06:11:12;;;;;;;6.73;1.27;;;;;;;12.36;68.05;100032.16;5032007;28;20263;-86
2022/11/02 06:13:38;;;;;;;4.47;1.75;;;;;;;12.44;68.20;100036.28;5044163;28;20673;-85
2022/11/02 06:16:06;;;;;;;8.40;2.22;;;;;;;12.53;67.13;100050.22;5051705;28;20033;-81
2022/11/02 06:18:32;;;;;;;8.57;1.98;;;;;;;12.44;67.42;100058.16;5044084;28;20030;-85
2022/11/02 06:20:57;;;;;;;10.27;2.42;;;;;;;12.37;67.87;100057.56;5032011;28;20025;-84
2022/11/02 06:23:24;;;;;;;4.93;1.85;;;;;;;12.45;67.40;100054.31;5031321;28;20034;-85
2022/11/02 06:25:54;;;;;;;38.50;3.55;;;;;;;12.52;67.22;100055.97;5031855;28;20033;-85
2022/11/02 06:28:20;;;;;;;5.55;1.75;;;;;;;12.45;67.51;100062.53;5031264;28;20473;-84
2022/11/02 06:30:45;;;;;;;8.18;1.75;;;;;;;12.55;67.20;100056.25;5032197;28;20033;-84
2022/11/02 06:33:11;;;;;;;28.88;2.25;;;;;;;12.50;67.07;100056.25;5031158;28;20044;-83
2022/11/02 06:35:36;;;;;;;6.97;1.95;;;;;;;12.37;67.64;100063.03;5031797;28;20053;-84
2022/11/02 06:38:01;;;;;;;8.38;1.52;;;;;;;12.42;67.66;100062.25;5031299;28;20040;-85
2022/11/02 06:40:28;;;;;;;6.75;1.70;;;;;;;12.29;67.68;100066.31;5031338;28;20037;-86
2022/11/02 06:42:56;;;;;;;22.00;3.90;;;;;;;12.28;68.16;100081.06;5030727;28;20040;-86
2022/11/02 06:45:23;;;;;;;11.15;1.88;;;;;;;12.20;68.25;100096.91;5031569;28;20535;-85
2022/11/02 06:47:48;;;;;;;9.98;1.70;;;;;;;12.29;67.79;100086.25;5031005;28;20029;-82
2022/11/02 06:50:13;;;;;;;11.93;2.38;;;;;;;12.43;67.55;100097.50;5031400;28;20171;-85
2022/11/02 06:52:46;;;;;;;9.07;1.75;;;;;;;12.59;66.98;100095.63;5036150;28;20033;-83
2022/11/02 06:55:13;;;;;;;5.78;1.40;;;;;;;12.51;67.20;100103.56;5029934;28;20084;-85
2022/11/02 06:57:40;;;;;;;5.38;1.65;;;;;;;12.49;67.15;100107.38;5021753;28;20048;-85
2022/11/02 07:00:09;;;;;;;10.88;3.08;;;;;;;12.36;67.76;100114.19;5022230;28;20029;-84
2022/11/02 07:02:35;;;;;;;11.02;2.80;;;;;;;12.29;67.52;100110.88;5018182;28;20390;-85
2022/11/02 07:05:01;;;;;;;10.10;3.17;;;;;;;12.32;67.80;100123.19;5030479;28;20042;-85
2022/11/02 07:07:26;;;;;;;10.30;2.47;;;;;;;12.33;67.69;100130.28;5031237;28;20037;-86
2022/11/02 07:09:52;;;;;;;13.18;2.70;;;;;;;12.35;67.68;100136.31;5030401;28;20060;-84
2022/11/02 07:12:17;;;;;;;8.13;1.67;;;;;;;12.49;67.59;100139.38;5033733;28;20039;-83
2022/11/02 07:14:42;;;;;;;8.77;2.07;;;;;;;12.61;66.86;100153.63;5051458;28;20048;-85
2022/11/02 07:17:07;;;;;;;16.17;3.30;;;;;;;12.51;66.70;100155.53;5050904;28;20288;-84
2022/11/02 07:19:33;;;;;;;4.88;1.00;;;;;;;12.42;66.74;100166.16;5034098;28;20723;-82
2022/11/02 07:21:58;;;;;;;11.43;1.50;;;;;;;12.25;67.52;100176.19;5030038;28;20209;-82
2022/11/02 07:24:23;;;;;;;8.23;1.67;;;;;;;12.46;67.25;100195.44;5030634;28;20328;-83
2022/11/02 07:26:49;;;;;;;12.43;2.57;;;;;;;12.49;66.84;100174.91;5030772;28;20259;-83
2022/11/02 07:29:17;;;;;;;10.10;1.83;;;;;;;12.56;66.87;100182.88;5030983;28;20262;-86
2022/11/02 07:31:43;;;;;;;12.80;2.83;;;;;;;12.55;67.24;100192.19;5030629;28;20037;-84
2022/11/02 07:34:09;;;;;;;10.63;2.47;;;;;;;12.66;66.67;100196.59;5029887;28;20037;-82
2022/11/02 07:36:34;;;;;;;7.65;1.58;;;;;;;12.55;66.31;100206.66;5030387;28;20033;-82
2022/11/02 07:39:00;;;;;;;8.50;1.00;;;;;;;12.68;65.94;100202.63;5027670;28;20393;-82
2022/11/02 07:41:25;;;;;;;15.00;2.88;;;;;;;12.80;65.89;100215.22;5030146;28;20033;-80
2022/11/02 07:43:50;;;;;;;14.27;2.03;;;;;;;12.87;65.62;100221.28;5045335;28;20401;-83
2022/11/02 07:46:16;;;;;;;7.80;2.00;;;;;;;12.80;65.81;100220.72;5042970;28;20265;-82
2022/11/02 07:48:41;;;;;;;6.28;2.08;;;;;;;12.67;65.67;100227.50;5030694;28;20029;-82
2022/11/02 07:51:07;;;;;;;8.03;1.60;;;;;;;12.81;65.29;100236.03;5023874;28;20124;-82
2022/11/02 07:53:32;;;;;;;15.95;2.85;;;;;;;12.86;65.35;100227.84;5026788;28;20278;-82
2022/11/02 07:56:02;;;;;;;6.88;1.83;;;;;;;12.96;65.42;100240.72;5027657;28;20536;-83
2022/11/02 07:58:28;;;;;;;4.65;0.90;;;;;;;12.67;65.80;100239.25;5030435;28;20101;-83
2022/11/02 08:00:56;;;;;;;4.65;1.30;;;;;;;12.75;65.53;100257.09;5030778;28;20314;-81
2022/11/02 08:03:21;;;;;;;5.50;1.42;;;;;;;12.76;65.97;100247.78;5041617;28;20033;-82
2022/11/02 08:05:47;;;;;;;6.57;1.80;;;;;;;12.81;65.94;100256.00;5050454;28;20068;-83
2022/11/02 08:08:15;;;;;;;15.77;2.75;;;;;;;12.87;64.96;100253.28;5050199;28;20250;-82
2022/11/02 08:10:41;;;;;;;8.40;1.73;;;;;;;12.98;64.80;100254.97;5050873;28;20033;-84
2022/11/02 08:13:12;;;;;;;16.23;2.10;;;;;;;12.95;65.32;100266.47;5044200;28;20037;-83
2022/11/02 08:15:37;;;;;;;17.83;3.53;;;;;;;12.83;65.37;100266.69;5033920;28;20111;-81
2022/11/02 08:18:10;;;;;;;10.18;2.10;;;;;;;12.83;65.69;100263.97;5034271;28;20104;-82
2022/11/02 08:20:36;;;;;;;9.38;3.00;;;;;;;12.98;64.79;100270.59;5033907;28;20111;-82
2022/11/02 08:23:01;;;;;;;6.23;1.33;;;;;;;12.91;64.85;100263.44;5041380;28;20092;-83
2022/11/02 08:25:27;;;;;;;6.93;2.15;;;;;;;12.81;65.38;100277.09;5053586;28;20273;-82
2022/11/02 08:27:59;;;;;;;31.70;2.90;;;;;;;12.71;65.55;100273.19;5053660;28;20035;-83
2022/11/02 08:30:26;;;;;;;7.85;2.28;;;;;;;12.77;65.68;100278.72;5054011;28;20049;-81
2022/11/02 08:32:51;;;;;;;15.88;3.40;;;;;;;12.87;65.96;100280.66;5045345;28;20025;-83
2022/11/02 08:35:16;;;;;;;4.50;1.47;;;;;;;12.83;65.94;100274.91;5033232;28;20060;-83
2022/11/02 08:37:41;;;;;;;10.43;1.40;;;;;;;12.89;65.06;100287.53;5032843;28;20297;-83
2022/11/02 08:40:07;;;;;;;8.95;2.22;;;;;;;12.80;65.83;100289.09;5033704;28;20266;-82
2022/11/02 08:42:33;;;;;;;4.45;1.38;;;;;;;13.00;64.70;100279.31;5033452;28;20119;-84
2022/11/02 08:44:58;;;;;;;10.23;1.67;;;;;;;12.89;65.14;100284.78;5033418;28;20029;-83
2022/11/02 08:47:23;;;;;;;8.27;2.00;;;;;;;12.96;64.79;100293.56;5033134;28;20049;-82
2022/11/02 08:49:50;;;;;;;6.10;1.65;;;;;;;13.00;64.26;100282.06;5032824;28;20857;-81
2022/11/02 08:52:16;;;;;;;12.18;2.25;;;;;;;13.24;63.97;100301.56;5032534;28;20080;-82
2022/11/02 08:54:41;;;;;;;6.28;1.70;;;;;;;13.44;63.91;100305.47;5033147;28;20060;-82
2022/11/02 08:57:06;;;;;;;7.47;1.50;;;;;;;13.33;63.74;100309.25;5032692;28;20044;-83
2022/11/02 08:59:32;;;;;;;11.07;2.30;;;;;;;13.29;64.10;100304.34;5032983;28;20281;-83
2022/11/02 09:01:57;;;;;;;8.27;2.33;;;;;;;13.37;63.57;100310.38;5032626;28;20266;-83
2022/11/02 09:04:22;;;;;;;15.02;2.38;;;;;;;13.31;63.39;100309.53;5052315;28;20339;-83
2022/11/02 09:06:47;;;;;;;10.88;2.28;;;;;;;13.41;63.24;100312.31;5052803;28;20112;-82
2022/11/02 09:09:13;;;;;;;5.90;1.60;;;;;;;13.52;63.16;100337.81;5052647;28;20029;-83
2022/11/02 09:11:38;;;;;;;8.33;2.13;;;;;;;13.24;62.10;100311.72;5051473;28;20361;-83
2022/11/02 09:14:03;;;;;;;12.98;2.03;;;;;;;13.21;62.33;100317.72;5052146;28;20278;-83
2022/11/02 09:16:28;;;;;;;7.23;2.13;;;;;;;13.17;61.88;100328.38;5052602;28;20060;-82
2022/11/02 09:18:54;;;;;;;3.90;1.43;;;;;;;13.33;61.11;100333.91;5043495;28;20325;-83
2022/11/02 09:21:19;;;;;;;5.90;1.65;;;;;;;13.38;61.54;100334.75;5031490;28;20846;-82
2022/11/02 09:23:47;;;;;;;9.80;1.83;;;;;;;13.25;62.20;100335.25;5047496;28;20516;-78
2022/11/02 09:26:12;;;;;;;4.53;1.08;;;;;;;13.45;61.40;100339.97;5053352;28;20277;-81
2022/11/02 09:28:38;;;;;;;12.25;2.83;;;;;;;13.41;60.61;100350.66;5052368;28;20033;-79
2022/11/02 09:31:03;;;;;;;21.57;4.40;;;;;;;13.29;60.94;100333.63;5052898;28;20044;-83
2022/11/02 09:33:29;;;;;;;12.80;2.08;;;;;;;13.39;60.79;100344.63;5039771;28;20779;-82
2022/11/02 09:35:54;;;;;;;10.63;2.13;;;;;;;13.29;61.30;100336.38;5032734;28;20128;-80
2022/11/02 09:38:19;;;;;;;7.53;1.33;;;;;;;13.45;61.74;100339.13;5032890;28;20033;-82
2022/11/02 09:40:59;;;;;;;8.37;1.90;;;;;;;13.49;61.88;100352.03;5032832;28;20061;-82
2022/11/02 09:43:57;;;;;;;10.65;2.50;;;;;;;13.59;61.79;100356.75;5044705;28;20288;-82
2022/11/02 09:46:37;;;;;;;10.82;2.35;;;;;;;13.60;61.48;100350.19;5042149;28;20041;-83
2022/11/02 09:49:05;;;;;;;8.68;3.03;;;;;;;13.37;60.82;100352.28;5032810;28;20034;-83
2022/11/02 09:51:40;;;;;;;7.43;1.98;;;;;;;13.52;61.21;100358.91;5032788;28;20029;-82
2022/11/02 09:54:20;;;;;;;17.00;2.90;;;;;;;13.67;60.73;100341.69;5014376;28;20033;-81
2022/11/02 09:56:47;;;;;;;11.93;1.92;;;;;;;13.51;60.43;100354.50;5012586;28;20524;-84
2022/11/02 09:59:22;;;;;;;5.20;1.02;;;;;;;13.56;59.82;100346.34;5012394;28;20038;-83
2022/11/02 10:01:58;;;;;;;12.35;2.03;;;;;;;13.34;60.49;100352.00;5012689;28;20026;-81
2022/11/02 10:04:53;;;;;;;5.55;1.48;;;;;;;13.21;62.08;100353.31;5012639;28;20430;-83
2022/11/02 10:08:01;;;;;;;7.35;2.90;;;;;;;13.62;60.28;100360.88;5013808;28;20030;-84
2022/11/02 10:10:37;;;;;;;10.30;1.73;;;;;;;13.84;59.88;100352.41;5012852;28;20033;-81
2022/11/02 10:13:37;;;;;;;10.05;1.85;;;;;;;13.90;60.53;100361.44;5020936;28;20037;-78
2022/11/02 10:16:09;;;;;;;6.10;1.83;;;;;;;14.03;59.75;100343.66;5032182;28;20112;-84
2022/11/02 10:18:36;;;;;;;9.20;2.30;;;;;;;14.07;59.66;100355.72;5033059;28;20037;-84
2022/11/02 10:21:07;;;;;;;10.65;2.28;;;;;;;14.42;59.37;100360.63;5031920;28;20037;-83
2022/11/02 10:23:46;;;;;;;13.02;2.65;;;;;;;14.45;58.50;100360.06;5032469;28;20536;-85
2022/11/02 10:26:21;;;;;;;5.93;1.95;;;;;;;14.68;58.83;100368.81;5032947;28;20033;-82
2022/11/02 10:28:49;;;;;;;8.30;2.13;;;;;;;14.65;58.46;100372.09;5033839;28;20084;-87
2022/11/02 10:31:23;;;;;;;5.63;1.67;;;;;;;14.71;57.98;100376.47;5034129;28;20029;-85
2022/11/02 10:33:48;;;;;;;12.57;2.33;;;;;;;14.81;57.63;100379.19;5032869;28;20086;-86
2022/11/02 10:36:48;;;;;;;6.67;1.53;;;;;;;14.58;57.10;100373.19;5034101;28;20505;-86
2022/11/02 10:39:30;;;;;;;12.35;3.25;;;;;;;14.82;56.96;100363.56;5028103;28;20283;-87
2022/11/02 10:42:23;;;;;;;7.90;1.42;;;;;;;14.76;56.86;100365.50;5013810;28;20034;-83
2022/11/02 10:45:03;;;;;;;10.98;1.85;;;;;;;14.66;57.21;100366.34;5016279;28;20069;-85
2022/11/02 10:47:58;;;;;;;6.55;1.50;;;;;;;14.65;56.29;100363.88;5027332;28;20037;-83
2022/11/02 10:50:35;;;;;;;9.68;1.83;;;;;;;14.75;56.25;100366.59;5013056;28;20383;-83
2022/11/02 10:53:02;;;;;;;7.82;2.38;;;;;;;14.72;54.74;100369.91;5030188;28;20029;-84
2022/11/02 10:55:33;;;;;;;7.93;2.63;;;;;;;14.85;55.59;100373.19;5052863;28;20028;-83
2022/11/02 10:58:02;;;;;;;7.40;1.50;;;;;;;14.82;54.61;100375.38;5053175;28;20037;-84
2022/11/02 11:00:33;;;;;;;7.25;1.23;;;;;;;14.59;54.96;100376.78;5052316;28;20530;-84
2022/11/02 11:03:06;;;;;;;8.88;1.88;;;;;;;14.78;54.07;100371.53;5044078;28;20042;-81
2022/11/02 11:05:34;;;;;;;5.50;1.42;;;;;;;14.91;53.82;100369.31;5030707;28;20048;-80
2022/11/02 11:08:01;;;;;;;7.97;1.83;;;;;;;15.08;53.93;100376.41;5030368;28;20389;-80
2022/11/02 11:10:26;;;;;;;3.90;1.15;;;;;;;14.98;52.75;100367.13;5030810;28;20112;-81
2022/11/02 11:12:54;;;;;;;11.00;1.98;;;;;;;14.94;52.98;100375.09;5038315;28;20469;-81
2022/11/02 11:15:30;;;;;;;8.75;2.13;;;;;;;14.69;53.36;100384.16;5049634;28;20029;-80
2022/11/02 11:17:56;;;;;;;8.23;1.85;;;;;;;14.79;53.00;100389.63;5047283;28;20029;-80
2022/11/02 11:20:36;;;;;;;9.13;1.17;;;;;;;14.79;52.11;100381.41;5030460;28;20043;-80
2022/11/02 11:23:18;;;;;;;20.90;3.25;;;;;;;14.75;52.03;100390.47;5028856;28;20069;-80
2022/11/02 11:26:02;;;;;;;9.70;2.10;;;;;;;14.81;52.16;100390.19;5029975;28;20022;-79
2022/11/02 11:28:29;;;;;;;4.80;1.42;;;;;;;14.96;51.91;100394.03;5029713;28;20038;-79
2022/11/02 11:31:16;;;;;;;4.38;1.02;;;;;;;15.14;51.81;100391.75;5030026;28;20097;-80
2022/11/02 11:33:45;;;;;;;5.85;1.40;;;;;;;15.15;51.67;100390.66;5043785;28;20040;-80
2022/11/02 11:36:21;;;;;;;38.25;2.33;;;;;;;14.98;51.65;100394.56;5049492;28;20392;-79
2022/11/02 11:38:49;;;;;;;10.80;3.33;;;;;;;15.00;51.02;100395.09;5047036;28;20107;-78
2022/11/02 11:41:14;;;;;;;17.60;2.13;;;;;;;15.12;51.46;100391.22;5029795;28;20594;-78
2022/11/02 11:43:40;;;;;;;10.88;1.88;;;;;;;15.31;51.80;100391.44;5029763;28;20176;-80
2022/11/02 11:46:07;;;;;;;10.75;2.50;;;;;;;15.28;51.66;100387.31;5025455;28;20514;-80
2022/11/02 11:48:40;;;;;;;4.95;1.67;;;;;;;15.23;51.44;100392.84;5023353;28;20109;-81
2022/11/02 11:51:28;;;;;;;9.85;1.70;;;;;;;15.37;51.14;100394.97;5022340;28;20167;-80
2022/11/02 11:54:18;;;;;;;23.73;3.28;;;;;;;15.29;50.49;100397.19;5023008;28;20085;-81
2022/11/02 11:56:43;;;;;;;11.50;2.28;;;;;;;15.46;50.49;100393.25;5021409;28;20032;-80